Time;durP1;ratioP1;P1;durP2;ratioP2;P2;SDS_P1;SDS_P2;PMS_P1;PMS_P2;Temp;Humidity;BMP_temperature;BMP_pressure;BME280_temperature;BME280_humidity;BME280_pressure;Samples;Min_cycle;Max_cycle;Signal;HPM_P1;HPM_P2
2021/06/07 00:01:25;;;;;;;21.42;14.90;;;16.80;84.30;;;;;;5136441;27;20033;-36
2021/06/07 00:03:51;;;;;;;20.75;14.65;;;16.80;84.30;;;;;;5136389;27;20031;-36
2021/06/07 00:06:19;;;;;;;20.42;15.00;;;16.80;84.50;;;;;;5136017;27;20021;-36
2021/06/07 00:08:45;;;;;;;20.60;16.33;;;16.80;84.30;;;;;;5136246;27;20022;-36
2021/06/07 00:11:12;;;;;;;21.65;15.52;;;16.80;84.40;;;;;;5136208;27;20420;-36
2021/06/07 00:13:40;;;;;;;20.20;14.55;;;16.80;84.60;;;;;;5135945;27;20510;-36
2021/06/07 00:16:06;;;;;;;24.73;15.40;;;16.60;84.80;;;;;;5136695;27;20038;-35
2021/06/07 00:18:33;;;;;;;21.75;14.77;;;16.50;85.50;;;;;;5135854;27;20061;-34
2021/06/07 00:21:21;;;;;;;22.13;15.18;;;16.50;85.40;;;;;;5135668;27;20023;-35
2021/06/07 00:23:48;;;;;;;18.17;15.07;;;16.70;84.90;;;;;;5135644;27;20466;-33
2021/06/07 00:26:14;;;;;;;19.75;15.90;;;16.60;84.80;;;;;;5135882;27;20066;-36
2021/06/07 00:28:40;;;;;;;21.02;16.52;;;16.50;85.10;;;;;;5135645;27;20022;-41
2021/06/07 00:31:08;;;;;;;20.95;15.30;;;16.60;84.90;;;;;;5135672;27;20023;-34
2021/06/07 00:33:34;;;;;;;26.77;15.88;;;16.50;85.00;;;;;;5135932;27;20126;-35
2021/06/07 00:36:01;;;;;;;19.75;16.35;;;16.50;85.00;;;;;;5135828;27;20460;-34
2021/06/07 00:38:27;;;;;;;19.30;15.23;;;16.60;85.00;;;;;;5135542;27;20478;-34
2021/06/07 00:40:53;;;;;;;21.80;16.58;;;16.60;84.70;;;;;;5135517;27;20027;-34
2021/06/07 00:43:19;;;;;;;19.17;15.60;;;16.50;85.10;;;;;;5135354;27;20109;-34
2021/06/07 00:45:45;;;;;;;24.10;16.40;;;16.50;84.90;;;;;;5133872;27;20023;-36
2021/06/07 00:48:11;;;;;;;25.30;17.83;;;16.50;85.20;;;;;;5135491;27;20454;-34
2021/06/07 00:50:50;;;;;;;25.10;18.13;;;16.50;85.10;;;;;;5135480;27;20027;-35
2021/06/07 00:53:18;;;;;;;25.17;17.47;;;16.50;85.10;;;;;;5135304;27;20019;-34
2021/06/07 00:55:48;;;;;;;28.77;18.50;;;16.50;85.40;;;;;;5135107;27;20080;-34
2021/06/07 00:58:17;;;;;;;21.00;17.27;;;16.50;85.30;;;;;;5135265;27;20023;-34
2021/06/07 01:00:43;;;;;;;23.48;17.42;;;16.50;85.40;;;;;;5134737;27;20048;-36
2021/06/07 01:03:11;;;;;;;30.35;19.88;;;16.40;85.40;;;;;;5133980;27;20462;-35
2021/06/07 01:05:37;;;;;;;27.65;19.75;;;16.50;85.30;;;;;;5134601;27;20355;-34
2021/06/07 01:08:04;;;;;;;30.25;19.20;;;16.40;85.30;;;;;;5134733;27;20015;-34
2021/06/07 01:10:30;;;;;;;32.60;21.02;;;16.40;85.50;;;;;;5134884;27;20073;-35
2021/06/07 01:12:56;;;;;;;32.90;22.08;;;16.30;85.70;;;;;;5134690;27;20382;-35
2021/06/07 01:15:22;;;;;;;29.83;20.85;;;16.30;85.80;;;;;;5135339;27;20023;-35
2021/06/07 01:17:48;;;;;;;39.83;22.17;;;16.30;86.00;;;;;;5134561;27;20019;-35
2021/06/07 01:20:17;;;;;;;38.38;23.55;;;16.20;86.30;;;;;;5133230;27;20027;-35
2021/06/07 01:22:44;;;;;;;33.28;21.80;;;16.20;86.50;;;;;;5134681;27;20103;-35
2021/06/07 01:25:26;;;;;;;35.70;21.70;;;16.30;86.00;;;;;;5134364;27;20035;-35
2021/06/07 01:27:55;;;;;;;29.08;20.30;;;16.30;86.20;;;;;;5133339;27;20068;-35
2021/06/07 01:30:29;;;;;;;32.92;21.52;;;16.30;85.90;;;;;;5134816;27;20029;-38
2021/06/07 01:32:55;;;;;;;34.95;22.75;;;16.40;85.40;;;;;;5134848;27;20019;-35
2021/06/07 01:35:21;;;;;;;37.40;24.00;;;16.20;85.70;;;;;;5134862;27;20030;-35
2021/06/07 01:37:49;;;;;;;36.42;21.80;;;16.20;86.10;;;;;;5134743;27;20019;-35
2021/06/07 01:40:18;;;;;;;37.55;23.92;;;16.10;86.40;;;;;;5133143;27;20031;-35
2021/06/07 01:42:45;;;;;;;37.90;22.45;;;16.20;86.10;;;;;;5134440;27;20026;-35
2021/06/07 01:45:12;;;;;;;35.67;22.42;;;16.10;86.40;;;;;;5135118;27;20031;-35
2021/06/07 01:47:39;;;;;;;35.67;22.23;;;16.10;86.30;;;;;;5134934;27;20023;-35
2021/06/07 01:50:10;;;;;;;35.78;21.00;;;16.00;86.70;;;;;;5134623;27;20023;-35
2021/06/07 01:52:43;;;;;;;30.98;21.10;;;15.90;86.90;;;;;;5133042;28;20030;-35
2021/06/07 01:55:13;;;;;;;32.25;21.27;;;16.10;86.80;;;;;;5134400;27;20019;-36
2021/06/07 01:57:40;;;;;;;;;;;16.10;86.50;;;;;;5134949;27;20035;-36
2021/06/07 02:00:09;;;;;;;36.13;21.40;;;16.30;85.60;;;;;;5133385;28;20314;-35
2021/06/07 02:02:35;;;;;;;37.85;22.88;;;16.30;85.70;;;;;;5134199;27;20019;-35
2021/06/07 02:05:01;;;;;;;35.55;21.33;;;16.20;85.40;;;;;;5134144;28;20084;-35
2021/06/07 02:07:26;;;;;;;35.92;20.63;;;16.10;85.50;;;;;;5134358;27;20026;-35
2021/06/07 02:09:52;;;;;;;37.08;20.77;;;16.10;85.00;;;;;;5134192;28;20035;-35
2021/06/07 02:12:18;;;;;;;27.92;19.42;;;16.00;85.00;;;;;;5134159;28;20481;-35
2021/06/07 02:14:43;;;;;;;38.92;20.85;;;15.90;84.90;;;;;;5136174;27;20027;-35
2021/06/07 02:17:09;;;;;;;32.83;17.65;;;15.90;84.90;;;;;;5137875;27;20465;-35
2021/06/07 02:19:34;;;;;;;30.17;18.52;;;15.80;85.00;;;;;;5138404;27;20023;-37
2021/06/07 02:22:00;;;;;;;26.35;16.80;;;15.80;84.30;;;;;;5138031;27;20027;-35
2021/06/07 02:24:26;;;;;;;28.77;18.73;;;15.80;84.00;;;;;;5138098;27;20054;-35
2021/06/07 02:26:51;;;;;;;22.08;15.77;;;15.80;84.00;;;;;;5138025;27;20035;-35
2021/06/07 02:29:17;;;;;;;26.70;16.73;;;15.80;83.90;;;;;;5137897;27;20023;-35
2021/06/07 02:31:44;;;;;;;26.65;16.25;;;15.70;83.80;;;;;;5137977;27;20062;-35
2021/06/07 02:34:11;;;;;;;24.10;14.75;;;15.80;82.90;;;;;;5136977;27;20071;-35
2021/06/07 02:36:39;;;;;;;28.10;16.15;;;15.80;82.90;;;;;;5137778;27;20052;-38
2021/06/07 02:39:07;;;;;;;22.40;16.08;;;15.80;82.60;;;;;;5137785;27;20023;-35
2021/06/07 02:41:34;;;;;;;27.35;15.52;;;15.70;83.20;;;;;;5137798;27;20407;-35
2021/06/07 02:43:59;;;;;;;24.65;14.55;;;15.50;83.50;;;;;;5137692;27;20023;-35
2021/06/07 02:46:25;;;;;;;26.50;16.20;;;15.70;83.30;;;;;;5137672;27;20027;-35
2021/06/07 02:48:51;;;;;;;24.73;15.95;;;15.70;82.90;;;;;;5137727;27;20100;-34
2021/06/07 02:51:17;;;;;;;27.92;16.15;;;15.70;82.80;;;;;;5137496;27;20031;-35
2021/06/07 02:53:43;;;;;;;31.15;15.52;;;15.70;83.00;;;;;;5136260;27;20110;-35
2021/06/07 02:56:10;;;;;;;27.10;18.00;;;15.80;83.00;;;;;;5137731;27;20054;-35
2021/06/07 02:58:35;;;;;;;29.30;18.00;;;15.80;83.10;;;;;;5137482;27;20026;-35
2021/06/07 03:01:06;;;;;;;25.05;16.95;;;15.70;83.80;;;;;;5137778;27;20023;-35
2021/06/07 03:03:32;;;;;;;24.52;16.92;;;15.70;84.10;;;;;;5137535;27;20050;-35
2021/06/07 03:06:00;;;;;;;28.75;17.27;;;15.80;84.00;;;;;;5137468;27;20102;-39
2021/06/07 03:08:29;;;;;;;30.05;18.13;;;15.70;84.10;;;;;;5137172;27;20088;-36
2021/06/07 03:10:58;;;;;;;27.15;17.00;;;15.70;84.40;;;;;;5137246;27;20440;-35
2021/06/07 03:13:24;;;;;;;29.52;16.92;;;15.80;83.80;;;;;;5135781;27;20023;-35
2021/06/07 03:15:55;;;;;;;29.17;15.30;;;15.70;84.00;;;;;;5137118;27;20071;-35
2021/06/07 03:18:22;;;;;;;27.48;18.50;;;15.70;84.00;;;;;;5135832;27;20024;-36
2021/06/07 03:20:49;;;;;;;29.75;17.15;;;15.70;84.00;;;;;;5137107;27;20071;-35
2021/06/07 03:23:21;;;;;;;32.63;18.08;;;15.60;84.30;;;;;;5137693;27;20102;-36
2021/06/07 03:25:49;;;;;;;36.20;17.98;;;15.50;84.80;;;;;;5135778;27;20047;-35
2021/06/07 03:28:15;;;;;;;24.50;16.77;;;15.40;85.00;;;;;;5136904;27;20023;-36
2021/06/07 03:30:42;;;;;;;27.42;16.60;;;15.60;84.70;;;;;;5137167;27;20047;-35
2021/06/07 03:33:09;;;;;;;28.83;16.88;;;15.60;84.20;;;;;;5136843;27;20024;-35
2021/06/07 03:35:37;;;;;;;24.80;17.50;;;15.70;84.30;;;;;;5136706;27;20034;-35
2021/06/07 03:38:04;;;;;;;25.95;16.25;;;15.60;84.20;;;;;;5135339;27;20035;-35
2021/06/07 03:40:33;;;;;;;24.15;16.85;;;15.70;83.70;;;;;;5136683;27;20027;-35
2021/06/07 03:43:00;;;;;;;27.58;17.23;;;15.60;83.80;;;;;;5136572;27;20049;-35
2021/06/07 03:45:26;;;;;;;37.42;17.45;;;15.60;83.90;;;;;;5136495;27;20114;-35
2021/06/07 03:47:51;;;;;;;24.77;17.77;;;15.50;84.10;;;;;;5135340;27;20106;-35
2021/06/07 03:50:20;;;;;;;28.42;16.67;;;15.50;84.40;;;;;;5136882;27;20022;-35
2021/06/07 03:52:46;;;;;;;26.25;17.73;;;15.60;84.20;;;;;;5136370;27;20046;-35
2021/06/07 03:55:14;;;;;;;27.13;16.35;;;15.70;83.90;;;;;;5136373;27;20030;-35
2021/06/07 03:57:40;;;;;;;23.40;16.85;;;15.60;84.10;;;;;;5136263;27;20539;-35
2021/06/07 04:00:09;;;;;;;27.52;16.33;;;15.60;84.20;;;;;;5136298;27;20039;-35
2021/06/07 04:02:34;;;;;;;21.40;15.35;;;15.50;84.20;;;;;;5136100;27;20031;-35
2021/06/07 04:05:00;;;;;;;23.08;16.95;;;15.50;84.30;;;;;;5136114;27;20493;-35
2021/06/07 04:07:25;;;;;;;27.13;16.38;;;15.50;84.40;;;;;;5136053;27;20099;-35
2021/06/07 04:09:52;;;;;;;27.67;17.23;;;15.50;84.20;;;;;;5136381;27;20030;-35
2021/06/07 04:12:18;;;;;;;26.88;16.00;;;15.50;84.30;;;;;;5136088;27;20129;-36
2021/06/07 04:14:43;;;;;;;23.70;16.70;;;15.70;84.00;;;;;;5135977;27;20047;-41
2021/06/07 04:17:09;;;;;;;26.73;15.82;;;15.60;84.00;;;;;;5136169;27;20537;-35
2021/06/07 04:19:35;;;;;;;27.73;16.15;;;15.60;84.20;;;;;;5135919;27;20055;-36
2021/06/07 04:22:01;;;;;;;32.65;17.13;;;15.60;84.00;;;;;;5135671;27;20474;-35
2021/06/07 04:24:27;;;;;;;29.52;16.67;;;15.60;84.10;;;;;;5135731;27;20050;-35
2021/06/07 04:26:53;;;;;;;23.67;17.10;;;15.70;83.80;;;;;;5135667;27;20027;-35
2021/06/07 04:29:19;;;;;;;30.60;18.65;;;15.70;83.90;;;;;;5135905;27;20016;-34
2021/06/07 04:31:44;;;;;;;25.92;16.52;;;15.70;83.80;;;;;;5134281;27;20024;-35
2021/06/07 04:34:10;;;;;;;24.67;17.17;;;15.60;84.10;;;;;;5135555;27;20023;-35
2021/06/07 04:36:36;;;;;;;29.13;16.70;;;15.70;83.80;;;;;;5135883;27;20030;-35
2021/06/07 04:39:03;;;;;;;25.90;16.60;;;15.60;84.00;;;;;;5135468;27;20031;-35
2021/06/07 04:41:29;;;;;;;31.45;17.40;;;15.50;84.60;;;;;;5134403;27;20065;-35
2021/06/07 04:43:54;;;;;;;29.90;18.50;;;15.50;84.60;;;;;;5135417;27;20034;-35
2021/06/07 04:46:20;;;;;;;25.13;16.83;;;15.60;84.30;;;;;;5135269;27;20027;-36
2021/06/07 04:48:46;;;;;;;21.88;15.32;;;15.50;84.40;;;;;;5135292;27;20095;-35
2021/06/07 04:51:11;;;;;;;29.98;17.27;;;15.70;83.90;;;;;;5135505;27;20027;-35
2021/06/07 04:53:37;;;;;;;22.52;15.02;;;15.70;83.80;;;;;;5135149;27;20072;-35
2021/06/07 04:56:03;;;;;;;22.58;15.02;;;15.80;83.50;;;;;;5135343;27;20023;-35
2021/06/07 04:58:30;;;;;;;24.02;15.25;;;15.70;83.50;;;;;;5135099;27;20027;-35
2021/06/07 05:01:08;;;;;;;24.20;16.58;;;15.80;83.30;;;;;;5135462;27;20359;-35
2021/06/07 05:03:34;;;;;;;24.17;16.65;;;15.80;83.40;;;;;;5135655;27;20023;-36
2021/06/07 05:06:02;;;;;;;21.23;16.23;;;15.70;83.70;;;;;;5133434;27;20023;-36
2021/06/07 05:08:30;;;;;;;28.55;16.48;;;15.60;83.90;;;;;;5133519;27;20026;-36
2021/06/07 05:10:57;;;;;;;25.67;16.77;;;15.60;83.90;;;;;;5135135;27;20048;-36
2021/06/07 05:13:23;;;;;;;26.77;16.50;;;15.50;84.00;;;;;;5134780;27;20419;-37
2021/06/07 05:15:49;;;;;;;22.55;16.17;;;15.60;84.00;;;;;;5133475;27;20027;-37
2021/06/07 05:18:15;;;;;;;22.00;16.92;;;15.70;83.60;;;;;;5134563;27;20382;-37
2021/06/07 05:20:40;;;;;;;26.25;17.95;;;15.60;83.60;;;;;;5134806;27;20027;-37
2021/06/07 05:23:06;;;;;;;23.83;16.92;;;15.60;83.30;;;;;;5134525;27;20121;-37
2021/06/07 05:25:33;;;;;;;26.27;17.73;;;15.60;83.20;;;;;;5134380;27;20146;-37
2021/06/07 05:28:00;;;;;;;24.77;18.13;;;15.80;82.80;;;;;;5134892;27;20027;-37
2021/06/07 05:30:28;;;;;;;30.58;19.10;;;15.80;82.00;;;;;;5134413;27;20082;-37
2021/06/07 05:32:54;;;;;;;25.27;17.05;;;16.00;81.50;;;;;;5134317;27;20019;-36
2021/06/07 05:35:22;;;;;;;26.40;18.77;;;15.90;81.90;;;;;;5134284;27;20023;-36
2021/06/07 05:37:48;;;;;;;26.15;16.48;;;15.90;81.80;;;;;;5134363;27;20015;-36
2021/06/07 05:40:16;;;;;;;25.70;18.65;;;16.00;80.90;;;;;;5134507;27;20022;-35
2021/06/07 05:42:42;;;;;;;24.15;18.27;;;16.10;80.70;;;;;;5134982;27;20339;-35
2021/06/07 05:45:10;;;;;;;24.30;17.52;;;16.00;80.70;;;;;;5133007;27;20034;-36
2021/06/07 05:47:37;;;;;;;30.10;19.20;;;16.10;80.40;;;;;;5134043;27;20057;-37
2021/06/07 05:50:06;;;;;;;26.50;16.10;;;16.10;80.60;;;;;;5133553;27;20098;-36
2021/06/07 05:52:31;;;;;;;20.60;15.80;;;16.20;80.40;;;;;;5134003;27;20466;-36
2021/06/07 05:54:57;;;;;;;26.60;16.95;;;16.20;80.30;;;;;;5133919;27;20030;-36
2021/06/07 05:57:23;;;;;;;24.42;16.40;;;16.30;79.90;;;;;;5134013;28;20107;-36
2021/06/07 05:59:48;;;;;;;21.17;16.13;;;16.30;79.80;;;;;;5134254;28;20114;-36
2021/06/07 06:02:14;;;;;;;21.05;15.95;;;16.20;80.00;;;;;;5133803;28;20047;-36
2021/06/07 06:04:40;;;;;;;22.38;16.08;;;16.20;79.80;;;;;;5134495;28;20058;-36
2021/06/07 06:07:06;;;;;;;19.20;15.95;;;16.20;80.20;;;;;;5132411;28;20038;-35
2021/06/07 06:09:32;;;;;;;20.73;15.73;;;16.10;80.60;;;;;;5133879;27;20023;-36
2021/06/07 06:11:58;;;;;;;21.80;16.77;;;16.40;79.70;;;;;;5134074;28;20029;-36
2021/06/07 06:14:25;;;;;;;34.90;20.52;;;16.50;79.10;;;;;;5133855;27;20039;-36
2021/06/07 06:16:52;;;;;;;21.33;16.58;;;16.40;79.10;;;;;;5133970;27;20023;-38
2021/06/07 06:19:17;;;;;;;23.13;16.50;;;16.30;79.70;;;;;;5133590;27;20023;-37
2021/06/07 06:21:43;;;;;;;28.73;16.60;;;16.40;79.70;;;;;;5133536;28;20035;-37
2021/06/07 06:24:11;;;;;;;21.77;15.85;;;16.50;78.40;;;;;;5133415;28;20087;-36
2021/06/07 06:26:39;;;;;;;23.98;16.95;;;16.50;78.80;;;;;;5133523;27;20079;-36
2021/06/07 06:29:06;;;;;;;28.40;18.25;;;16.50;78.80;;;;;;5132420;28;20122;-36
2021/06/07 06:31:32;;;;;;;21.88;16.58;;;16.50;78.90;;;;;;5134052;27;20319;-38
2021/06/07 06:33:57;;;;;;;20.50;16.92;;;16.70;78.10;;;;;;5133533;27;20027;-37
2021/06/07 06:36:23;;;;;;;24.45;16.77;;;16.70;77.70;;;;;;5133807;28;20031;-37
2021/06/07 06:38:49;;;;;;;25.52;16.75;;;16.60;78.10;;;;;;5133764;28;20055;-36
2021/06/07 06:41:15;;;;;;;21.48;15.55;;;16.30;79.20;;;;;;5133632;28;20100;-36
2021/06/07 06:43:40;;;;;;;22.05;17.38;;;16.50;78.60;;;;;;5132472;28;20023;-37
2021/06/07 06:46:06;;;;;;;23.20;14.85;;;16.40;78.60;;;;;;5114888;28;20042;-38
2021/06/07 06:48:35;;;;;;;23.08;16.27;;;16.50;78.80;;;;;;5133195;27;20042;-37
2021/06/07 06:51:02;;;;;;;25.02;17.63;;;16.80;77.30;;;;;;5133034;27;20057;-36
2021/06/07 06:53:28;;;;;;;26.65;16.38;;;16.70;77.70;;;;;;5132518;28;20027;-36
2021/06/07 06:55:54;;;;;;;26.23;16.38;;;16.40;78.40;;;;;;5133371;27;20020;-37
2021/06/07 06:58:20;;;;;;;23.08;15.68;;;16.40;79.00;;;;;;5133185;28;20031;-37
2021/06/07 07:00:47;;;;;;;21.02;14.30;;;16.70;77.80;;;;;;5133384;27;20034;-37
2021/06/07 07:03:18;;;;;;;19.88;16.27;;;16.70;78.00;;;;;;5136894;27;20027;-36
2021/06/07 07:05:46;;;;;;;22.00;14.63;;;16.80;77.30;;;;;;5137482;27;20031;-36
2021/06/07 07:08:12;;;;;;;22.65;15.93;;;16.70;77.90;;;;;;5135133;27;20023;-36
2021/06/07 07:10:41;;;;;;;25.83;16.38;;;17.00;76.80;;;;;;5136232;27;20031;-37
2021/06/07 07:13:07;;;;;;;29.30;15.45;;;16.80;77.40;;;;;;5136726;27;20027;-37
2021/06/07 07:15:32;;;;;;;22.85;16.10;;;17.00;76.80;;;;;;5136549;27;20029;-37
2021/06/07 07:17:58;;;;;;;22.70;15.40;;;17.10;76.80;;;;;;5135348;27;20090;-37
2021/06/07 07:20:24;;;;;;;20.77;14.25;;;17.30;76.00;;;;;;5135309;27;20467;-37
2021/06/07 07:22:51;;;;;;;22.17;16.02;;;17.50;74.90;;;;;;5137634;27;20022;-37
2021/06/07 07:25:17;;;;;;;15.95;12.18;;;17.70;74.10;;;;;;5135885;27;20039;-37
2021/06/07 07:27:43;;;;;;;16.63;12.80;;;18.40;72.10;;;;;;5137164;27;20136;-37
2021/06/07 07:30:15;;;;;;;14.05;10.90;;;18.50;71.70;;;;;;5136652;27;20435;-37
2021/06/07 07:32:42;;;;;;;16.30;12.50;;;18.30;71.40;;;;;;5136811;27;20454;-37
2021/06/07 07:35:09;;;;;;;16.75;12.27;;;18.40;71.30;;;;;;5136831;27;20133;-39
2021/06/07 07:37:36;;;;;;;13.68;12.23;;;18.90;70.00;;;;;;5136411;27;20031;-36
2021/06/07 07:40:04;;;;;;;17.80;11.82;;;18.90;69.60;;;;;;5136362;27;20094;-36
2021/06/07 07:42:30;;;;;;;18.23;12.13;;;18.80;70.20;;;;;;5117263;27;20471;-36
2021/06/07 07:44:56;;;;;;;15.93;13.10;;;19.40;67.90;;;;;;5135837;27;20042;-36
2021/06/07 07:47:21;;;;;;;16.42;13.43;;;19.70;67.00;;;;;;5134372;27;20043;-37
2021/06/07 07:49:48;;;;;;;16.98;12.45;;;19.40;67.80;;;;;;5136901;27;20102;-38
2021/06/07 07:52:14;;;;;;;12.85;11.55;;;19.80;67.30;;;;;;5136117;27;20466;-39
2021/06/07 07:54:40;;;;;;;15.32;11.60;;;19.80;67.20;;;;;;5135914;27;20026;-36
2021/06/07 07:57:07;;;;;;;15.07;11.50;;;19.30;68.40;;;;;;5134652;27;20049;-37
2021/06/07 07:59:33;;;;;;;14.93;11.45;;;20.00;66.10;;;;;;5136061;27;20128;-37
2021/06/07 08:02:11;;;;;;;18.63;11.50;;;19.50;67.30;;;;;;5136055;27;20016;-38
2021/06/07 08:04:37;;;;;;;15.30;12.20;;;19.30;68.60;;;;;;5134908;27;20464;-37
2021/06/07 08:07:03;;;;;;;16.45;11.45;;;18.80;70.10;;;;;;5134569;27;20383;-36
2021/06/07 08:09:30;;;;;;;19.38;11.20;;;19.20;69.00;;;;;;5135536;27;20030;-38
2021/06/07 08:11:57;;;;;;;17.65;11.35;;;19.30;68.40;;;;;;5136274;27;20034;-37
2021/06/07 08:14:24;;;;;;;13.52;10.65;;;19.50;67.70;;;;;;5134025;27;20023;-38
2021/06/07 08:16:49;;;;;;;12.35;10.30;;;20.30;65.00;;;;;;5136634;27;20039;-36
2021/06/07 08:19:15;;;;;;;12.55;10.75;;;21.30;62.60;;;;;;5135260;27;20098;-37
2021/06/07 08:21:41;;;;;;;12.55;9.98;;;21.80;60.30;;;;;;5133814;27;20038;-38
2021/06/07 08:24:07;;;;;;;12.52;9.60;;;22.10;60.10;;;;;;5135299;27;20035;-37
2021/06/07 08:26:33;;;;;;;11.18;10.07;;;22.50;58.00;;;;;;5135700;27;20038;-38
2021/06/07 08:28:59;;;;;;;10.68;9.52;;;21.70;60.20;;;;;;5135315;27;20466;-37
2021/06/07 08:31:26;;;;;;;15.90;9.57;;;21.40;61.10;;;;;;5135398;27;20023;-37
2021/06/07 08:33:52;;;;;;;11.65;8.75;;;21.90;59.50;;;;;;5135403;27;20023;-37
2021/06/07 08:36:17;;;;;;;10.20;8.48;;;21.70;59.10;;;;;;5135008;27;20034;-37
2021/06/07 08:38:43;;;;;;;14.68;8.77;;;21.20;61.00;;;;;;5134850;27;20064;-37
2021/06/07 08:41:10;;;;;;;11.30;9.15;;;20.80;61.40;;;;;;5134992;27;20098;-36
2021/06/07 08:43:35;;;;;;;11.95;9.05;;;20.20;64.70;;;;;;5134613;27;20034;-38
2021/06/07 08:46:01;;;;;;;15.02;10.30;;;20.10;65.10;;;;;;5135003;27;20027;-37
2021/06/07 08:48:27;;;;;;;15.13;10.20;;;19.90;65.80;;;;;;5133732;27;20043;-38
2021/06/07 08:50:53;;;;;;;15.80;9.43;;;19.80;66.50;;;;;;5134652;27;20370;-37
2021/06/07 08:53:19;;;;;;;13.00;10.45;;;19.80;66.40;;;;;;5133811;27;20015;-38
2021/06/07 08:55:45;;;;;;;15.13;10.55;;;19.60;66.80;;;;;;5134655;27;20034;-37
2021/06/07 08:58:11;;;;;;;14.68;11.98;;;19.60;67.10;;;;;;5133283;27;20495;-36
2021/06/07 09:00:39;;;;;;;16.58;10.30;;;19.80;67.10;;;;;;5134410;27;20079;-38
2021/06/07 09:03:07;;;;;;;11.70;9.13;;;20.20;65.80;;;;;;5134885;27;20027;-38
2021/06/07 09:05:34;;;;;;;11.80;9.15;;;20.40;64.80;;;;;;5134464;27;20019;-36
2021/06/07 09:08:07;;;;;;;11.73;9.43;;;20.60;64.90;;;;;;5134455;27;20419;-37
2021/06/07 09:10:40;;;;;;;10.65;8.88;;;20.80;63.80;;;;;;5133215;27;20385;-37
2021/06/07 09:13:09;;;;;;;13.07;9.25;;;20.50;64.20;;;;;;5133496;27;20362;-37
2021/06/07 09:15:38;;;;;;;10.30;8.23;;;20.00;65.00;;;;;;5133361;27;20102;-36
2021/06/07 09:18:06;;;;;;;9.63;7.97;;;19.80;65.20;;;;;;5132767;27;20076;-37
2021/06/07 09:20:34;;;;;;;13.50;9.02;;;19.80;64.70;;;;;;5134371;27;20019;-36
2021/06/07 09:23:12;;;;;;;15.10;9.30;;;19.50;66.40;;;;;;5133105;27;20065;-37
2021/06/07 09:25:44;;;;;;;9.60;6.97;;;19.50;66.40;;;;;;5132294;27;20490;-37
2021/06/07 09:28:14;;;;;;;11.27;7.90;;;19.80;65.00;;;;;;5133592;27;20502;-37
2021/06/07 09:30:49;;;;;;;10.77;8.60;;;19.50;66.00;;;;;;5134931;27;20473;-36
2021/06/07 09:33:14;;;;;;;9.05;8.15;;;19.50;66.60;;;;;;5134122;27;20051;-36
2021/06/07 09:35:40;;;;;;;9.98;8.40;;;19.70;66.60;;;;;;5133506;27;20066;-38
2021/06/07 09:38:07;;;;;;;11.38;7.60;;;19.80;65.60;;;;;;5133716;27;20076;-36
2021/06/07 09:40:33;;;;;;;10.25;7.47;;;19.80;65.50;;;;;;5133823;27;20327;-37
2021/06/07 09:43:01;;;;;;;12.73;8.32;;;20.00;65.10;;;;;;5133993;27;20076;-37
2021/06/07 09:45:47;;;;;;;9.85;7.85;;;19.80;65.20;;;;;;5133961;27;20022;-37
2021/06/07 09:48:15;;;;;;;12.93;8.77;;;19.60;66.00;;;;;;5135482;27;20110;-37
2021/06/07 09:50:59;;;;;;;12.20;8.57;;;19.30;67.20;;;;;;5133728;27;20023;-36
2021/06/07 09:53:51;;;;;;;11.27;7.70;;;19.00;68.10;;;;;;5134089;27;20526;-36
2021/06/07 09:56:19;;;;;;;14.15;8.82;;;18.80;69.00;;;;;;5133733;27;20034;-38
2021/06/07 09:58:48;;;;;;;20.15;9.05;;;19.00;69.00;;;;;;5134383;27;20470;-37
2021/06/07 10:01:29;;;;;;;10.00;8.52;;;19.00;68.70;;;;;;5133683;28;20023;-36
2021/06/07 10:03:56;;;;;;;9.68;7.75;;;18.80;69.60;;;;;;5134196;27;20027;-36
2021/06/07 10:06:34;;;;;;;13.70;8.57;;;19.10;69.30;;;;;;5134041;27;20027;-36
2021/06/07 10:09:07;;;;;;;11.68;8.82;;;19.00;69.70;;;;;;5133685;27;20027;-36
2021/06/07 10:11:37;;;;;;;9.75;7.88;;;19.10;69.60;;;;;;5133594;27;20470;-37
2021/06/07 10:14:18;;;;;;;11.23;9.18;;;19.10;69.00;;;;;;5133494;27;20023;-37
2021/06/07 10:16:56;;;;;;;12.52;9.23;;;18.90;69.50;;;;;;5133539;27;20027;-37
2021/06/07 10:19:31;;;;;;;14.20;9.30;;;18.90;70.10;;;;;;5133514;27;20131;-37
2021/06/07 10:21:58;;;;;;;15.15;8.88;;;19.00;70.00;;;;;;5133637;27;20060;-37
2021/06/07 10:24:27;;;;;;;10.18;9.00;;;19.00;69.30;;;;;;5132135;28;20047;-37
2021/06/07 10:26:53;;;;;;;12.27;8.73;;;19.00;69.30;;;;;;5114962;28;20039;-38
2021/06/07 10:32:42;;;;;;;10.23;7.55;;;19.30;67.50;;;;;;5133919;28;20026;-36
2021/06/07 10:35:09;;;;;;;10.68;6.78;;;19.30;67.10;;;;;;5133850;27;20019;-37
2021/06/07 10:37:35;;;;;;;12.68;9.20;;;19.50;66.40;;;;;;5136332;27;20019;-36
2021/06/07 10:40:19;;;;;;;10.38;6.60;;;19.50;65.70;;;;;;5137484;27;20106;-36
2021/06/07 10:43:06;;;;;;;8.45;6.50;;;19.80;63.70;;;;;;5137754;27;20027;-38
2021/06/07 10:45:36;;;;;;;7.95;6.35;;;19.90;63.90;;;;;;5136585;27;20031;-39
2021/06/07 10:48:02;;;;;;;;;;;20.10;62.80;;;;;;5137704;27;20435;-37
2021/06/07 10:50:32;;;;;;;9.40;6.13;;;20.30;62.90;;;;;;5137401;27;19910;-37
2021/06/07 10:53:05;;;;;;;8.50;6.03;;;20.30;62.30;;;;;;5136087;27;20034;-37
2021/06/07 10:55:42;;;;;;;13.55;5.57;;;20.30;61.30;;;;;;5137360;27;20261;-37
2021/06/07 10:58:13;;;;;;;8.18;6.45;;;20.50;61.40;;;;;;5137035;27;20024;-37
2021/06/07 11:00:47;;;;;;;34.13;9.32;;;20.50;61.80;;;;;;5136986;27;20019;-37
2021/06/07 11:03:24;;;;;;;16.35;8.60;;;20.90;60.80;;;;;;5137136;27;20478;-38
2021/06/07 11:05:55;;;;;;;11.32;7.85;;;21.20;59.70;;;;;;5137429;27;20431;-40
2021/06/07 11:08:26;;;;;;;11.02;7.53;;;21.20;60.10;;;;;;5118835;27;20027;-40
2021/06/07 11:11:08;;;;;;;10.07;6.68;;;21.10;60.60;;;;;;5136930;27;20034;-37
2021/06/07 11:14:01;;;;;;;9.07;6.43;;;21.20;59.10;;;;;;5136284;27;20030;-37
2021/06/07 11:16:30;;;;;;;12.50;7.20;;;21.20;59.50;;;;;;5135741;27;20030;-38
2021/06/07 11:18:58;;;;;;;14.07;6.95;;;20.90;60.10;;;;;;5137053;27;20083;-37
2021/06/07 11:21:38;;;;;;;9.35;8.32;;;20.70;60.60;;;;;;5136792;27;20024;-37
2021/06/07 11:24:24;;;;;;;;;;;20.40;61.20;;;;;;5136517;27;20490;-36
2021/06/07 11:26:50;;;;;;;9.23;7.72;;;20.30;61.80;;;;;;5136422;27;19912;-37
2021/06/07 11:29:16;;;;;;;13.90;8.00;;;20.20;62.40;;;;;;5137586;27;20422;-37
2021/06/07 11:31:53;;;;;;;11.80;7.93;;;20.20;63.10;;;;;;5136026;27;20019;-44
2021/06/07 11:34:38;;;;;;;12.52;7.93;;;20.40;62.10;;;;;;5137053;27;20039;-37
2021/06/07 11:37:04;;;;;;;13.75;7.55;;;20.60;61.20;;;;;;5136479;27;20026;-38
2021/06/07 11:39:57;;;;;;;8.60;7.72;;;20.50;62.00;;;;;;5136962;27;20024;-37
2021/06/07 11:42:26;;;;;;;7.60;6.82;;;20.70;61.80;;;;;;5130981;27;20039;-38
2021/06/07 11:44:57;;;;;;;14.38;7.15;;;20.80;61.50;;;;;;5137671;27;20019;-38
2021/06/07 11:47:41;;;;;;;;;;;20.50;60.70;;;;;;5135596;27;20473;-35
2021/06/07 11:50:10;;;;;;;10.10;7.03;;;20.90;60.00;;;;;;5135745;27;20015;-37
2021/06/07 11:52:36;;;;;;;7.55;6.60;;;21.00;59.30;;;;;;5135663;27;20015;-38
2021/06/07 11:55:20;;;;;;;8.45;5.95;;;21.30;58.80;;;;;;5134096;27;20030;-37
2021/06/07 11:57:48;;;;;;;14.13;6.18;;;21.70;57.50;;;;;;5134192;27;20040;-37
2021/06/07 12:00:16;;;;;;;39.42;8.43;;;22.10;56.60;;;;;;5134493;27;20034;-36
2021/06/07 12:02:42;;;;;;;9.40;6.97;;;21.80;57.50;;;;;;5136275;27;20050;-37
2021/06/07 12:05:13;;;;;;;9.95;6.85;;;21.90;57.00;;;;;;5135839;27;20034;-37
2021/06/07 12:07:43;;;;;;;7.65;5.93;;;22.10;56.30;;;;;;5136006;27;20023;-37
2021/06/07 12:10:13;;;;;;;8.55;6.75;;;22.00;55.40;;;;;;5136083;27;20043;-36
2021/06/07 12:12:40;;;;;;;8.68;6.22;;;22.40;54.80;;;;;;5135777;27;20015;-41
2021/06/07 12:15:17;;;;;;;8.63;6.07;;;22.50;55.00;;;;;;5134263;27;20088;-39
2021/06/07 12:17:56;;;;;;;8.68;6.10;;;22.20;54.80;;;;;;5135940;27;20466;-37
2021/06/07 12:20:22;;;;;;;6.97;5.10;;;22.00;55.20;;;;;;5135773;27;20027;-38
2021/06/07 12:22:50;;;;;;;6.43;5.53;;;22.20;54.50;;;;;;5134167;27;20113;-36
2021/06/07 12:30:51;;;;;;;8.40;6.75;;;21.70;56.50;;;;;;5135518;27;20050;-37
2021/06/07 12:33:32;;;;;;;7.72;5.35;;;21.80;56.50;;;;;;5134930;27;20538;-37
2021/06/07 12:36:00;;;;;;;6.93;4.47;;;22.00;55.50;;;;;;5134167;27;20019;-46
2021/06/07 12:38:26;;;;;;;5.80;4.57;;;22.20;55.10;;;;;;5117651;27;20019;-38
2021/06/07 12:40:54;;;;;;;10.93;5.35;;;22.20;55.10;;;;;;5134866;27;20031;-37
2021/06/07 12:43:29;;;;;;;6.43;5.20;;;22.10;54.10;;;;;;5134738;27;20055;-37
2021/06/07 12:46:05;;;;;;;7.18;5.38;;;22.20;54.20;;;;;;5133672;27;20027;-37
2021/06/07 12:48:33;;;;;;;8.15;5.55;;;22.40;54.20;;;;;;5134751;27;20023;-36